KCDD

Scotts Seaplane Base

Crane Lake, Minnesota, USA
METAR KCDD 171007Z AUTO 21008KT 173V233 10SM CLR M13/M19 A3010 RMK AO2
Observed Flight Rules
Jan-17 @ 10:07 UTC (31 minutes ago) Visual Flight Rules
Wind Visibility Clouds
210° at 8 knots 10 miles
  • Clear skies
Temperatures Readings
Current -13°C / 9°F
Dewpoint -19°C / -2°F
Humidity 61%
Altimeter 30.1" Hg
Pressure 1019 hPa
Elevation 341
METAR KCDD 171007Z AUTO 21008KT 173V233 10SM CLR M13/M19 A3010 RMK AO2
Observed Flight Rules
Jan-17 @ 10:07 UTC
(31 minutes ago)
VFR
Wind Visibility
210° at 8 knots 10 miles
Clouds
  • Clear skies
Temperature Dewpoint
-13°C / 9°F -19°C / -2°F
Humidity Altimeter Pressure
61% 30.1" Hg 1019 hPa